Time;durP1;ratioP1;P1;durP2;ratioP2;P2;SDS_P1;SDS_P2;PMS_P1;PMS_P2;Temp;Humidity;BMP_temperature;BMP_pressure;BME280_temperature;BME280_humidity;BME280_pressure;Samples;Min_cycle;Max_cycle;Signal;HPM_P1;HPM_P2
2021/05/19 00:00:27;;;;;;;2.95;1.77;;;;;;;;;;5037999;28;20394;-59
2021/05/19 00:02:53;;;;;;;7.40;2.05;;;;;;;;;;5038119;28;20029;-58
2021/05/19 00:05:22;;;;;;;2.58;2.00;;;;;;;;;;5055106;28;20025;-59
2021/05/19 00:07:53;;;;;;;2.03;1.30;;;;;;;;;;5055322;28;20021;-58
2021/05/19 00:10:26;;;;;;;2.75;1.70;;;;;;;;;;5054742;28;20447;-58
2021/05/19 00:12:55;;;;;;;2.78;1.50;;;;;;;;;;5055111;28;20020;-58
2021/05/19 00:15:23;;;;;;;3.72;1.90;;;;;;;;;;5055318;28;20025;-58
2021/05/19 00:17:55;;;;;;;4.35;2.05;;;;;;;;;;5054852;28;20031;-58
2021/05/19 00:20:22;;;;;;;2.85;1.90;;;;;;;;;;5055084;28;20111;-58
2021/05/19 00:22:51;;;;;;;3.60;1.58;;;;;;;;;;5070211;28;20044;-58
2021/05/19 00:25:22;;;;;;;1.85;1.27;;;;;;;;;;5055200;28;20120;-58
2021/05/19 00:27:54;;;;;;;;;;;;;;;;;;5037210;28;20029;-58
2021/05/19 00:30:21;;;;;;;3.72;1.83;;;;;;;;;;5054555;28;19909;-59
2021/05/19 00:32:59;;;;;;;2.88;1.73;;;;;;;;;;5054591;28;20025;-58
2021/05/19 00:35:28;;;;;;;2.53;1.60;;;;;;;;;;5054357;28;20418;-58
2021/05/19 00:38:06;;;;;;;3.45;1.73;;;;;;;;;;5054687;28;20029;-58
2021/05/19 00:40:35;;;;;;;2.78;1.65;;;;;;;;;;5054815;28;20141;-59
2021/05/19 00:43:04;;;;;;;3.03;1.98;;;;;;;;;;5054357;28;20048;-59
2021/05/19 00:45:31;;;;;;;2.58;1.77;;;;;;;;;;5055152;28;20068;-58
2021/05/19 00:48:02;;;;;;;2.25;1.48;;;;;;;;;;5054548;28;20025;-58
2021/05/19 00:50:29;;;;;;;2.95;1.80;;;;;;;;;;5054363;28;20029;-58
2021/05/19 00:53:01;;;;;;;4.05;2.05;;;;;;;;;;5055038;28;20052;-58
2021/05/19 00:55:40;;;;;;;;;;;;;;;;;;;;;
2021/05/19 00:58:09;;;;;;;2.85;1.70;;;;;;;;;;5049843;28;20025;-58
2021/05/19 01:00:36;;;;;;;2.65;1.80;;;;;;;;;;5054234;28;20032;-59
2021/05/19 01:03:05;;;;;;;3.58;1.75;;;;;;;;;;5053263;28;20068;-58
2021/05/19 01:11:20;;;;;;;3.17;2.28;;;;;;;;;;5054242;28;20044;-58
2021/05/19 01:13:52;;;;;;;2.58;1.38;;;;;;;;;;5053920;28;20379;-58
2021/05/19 01:16:27;;;;;;;4.15;1.67;;;;;;;;;;5054192;28;20032;-58
2021/05/19 01:18:56;;;;;;;3.03;2.25;;;;;;;;;;5054052;28;20108;-58
2021/05/19 01:21:25;;;;;;;3.22;2.10;;;;;;;;;;5054295;28;20043;-58
2021/05/19 01:23:55;;;;;;;4.32;1.63;;;;;;;;;;5035615;28;20032;-58
2021/05/19 01:26:21;;;;;;;3.15;2.03;;;;;;;;;;5053722;28;20120;-58
2021/05/19 01:29:01;;;;;;;;;;;;;;;;;;;;;
2021/05/19 01:31:30;;;;;;;2.20;1.58;;;;;;;;;;5038330;28;20036;-59
2021/05/19 01:33:57;;;;;;;2.50;1.80;;;;;;;;;;5053571;28;20031;-59
2021/05/19 01:36:25;;;;;;;4.30;2.30;;;;;;;;;;5053499;28;20067;-59
2021/05/19 01:38:52;;;;;;;2.60;1.73;;;;;;;;;;5053137;28;20017;-59
2021/05/19 01:41:21;;;;;;;2.65;2.17;;;;;;;;;;5035955;28;20081;-59
2021/05/19 01:43:50;;;;;;;3.53;1.95;;;;;;;;;;5053173;28;20049;-59
2021/05/19 01:46:25;;;;;;;2.72;1.92;;;;;;;;;;5035316;28;20399;-59
2021/05/19 01:49:01;;;;;;;4.63;2.67;;;;;;;;;;5053421;28;20412;-59
2021/05/19 01:51:32;;;;;;;3.65;2.00;;;;;;;;;;5035277;28;20037;-59
2021/05/19 01:53:59;;;;;;;2.50;2.03;;;;;;;;;;5053655;28;20025;-59
2021/05/19 01:56:34;;;;;;;3.70;2.00;;;;;;;;;;5068679;28;20021;-59
2021/05/19 01:59:06;;;;;;;2.40;1.73;;;;;;;;;;5035598;28;20040;-59
2021/05/19 02:01:35;;;;;;;3.75;2.25;;;;;;;;;;5051650;28;20223;-59
2021/05/19 02:04:09;;;;;;;3.42;2.08;;;;;;;;;;5035038;28;20383;-59
2021/05/19 02:06:50;;;;;;;7.75;2.15;;;;;;;;;;5053069;28;20029;-59
2021/05/19 02:09:17;;;;;;;2.88;1.92;;;;;;;;;;5053112;28;20029;-59
2021/05/19 02:11:44;;;;;;;3.33;2.03;;;;;;;;;;5068648;28;20041;-59
2021/05/19 02:14:11;;;;;;;3.03;2.25;;;;;;;;;;5052905;28;20025;-59
2021/05/19 02:16:38;;;;;;;3.55;1.63;;;;;;;;;;5053039;28;20107;-58
2021/05/19 02:19:04;;;;;;;2.60;1.67;;;;;;;;;;5053071;28;20110;-58
2021/05/19 02:21:31;;;;;;;2.88;1.98;;;;;;;;;;5053476;28;20036;-59
2021/05/19 02:23:59;;;;;;;2.60;1.90;;;;;;;;;;5052579;28;20471;-59
2021/05/19 02:26:25;;;;;;;3.92;2.30;;;;;;;;;;5034881;28;20379;-58
2021/05/19 02:28:54;;;;;;;2.72;1.75;;;;;;;;;;5052887;28;20439;-59
2021/05/19 02:31:27;;;;;;;3.78;2.22;;;;;;;;;;5052045;28;20043;-59
2021/05/19 02:33:53;;;;;;;2.80;2.08;;;;;;;;;;5034963;28;20036;-59
2021/05/19 02:36:23;;;;;;;4.20;2.20;;;;;;;;;;5068892;28;20378;-59
2021/05/19 02:39:02;;;;;;;3.97;2.05;;;;;;;;;;5056682;28;20116;-59
2021/05/19 02:41:28;;;;;;;3.45;2.40;;;;;;;;;;5038938;28;20053;-59
2021/05/19 02:43:55;;;;;;;3.20;2.50;;;;;;;;;;5057291;28;20021;-59
2021/05/19 02:46:21;;;;;;;3.58;2.17;;;;;;;;;;5056378;28;20028;-58
2021/05/19 02:49:01;;;;;;;2.38;1.70;;;;;;;;;;5056576;28;20025;-58
2021/05/19 02:51:32;;;;;;;3.08;2.17;;;;;;;;;;5056310;28;20116;-58
2021/05/19 02:54:08;;;;;;;3.83;2.55;;;;;;;;;;5056855;28;20041;-58
2021/05/19 02:56:37;;;;;;;2.35;1.92;;;;;;;;;;5056668;28;20025;-58
2021/05/19 02:59:06;;;;;;;2.80;2.15;;;;;;;;;;5056487;28;20029;-58
2021/05/19 03:01:49;;;;;;;2.50;1.77;;;;;;;;;;5056134;28;20032;-58
2021/05/19 03:04:15;;;;;;;3.63;2.33;;;;;;;;;;5056484;28;20036;-58
2021/05/19 03:06:44;;;;;;;8.05;2.13;;;;;;;;;;5055711;28;20079;-58
2021/05/19 03:09:13;;;;;;;3.63;2.00;;;;;;;;;;5056032;28;20037;-58
2021/05/19 03:11:40;;;;;;;2.00;1.30;;;;;;;;;;5055741;28;20025;-58
2021/05/19 03:14:11;;;;;;;2.53;1.58;;;;;;;;;;5055938;28;20034;-58
2021/05/19 03:16:37;;;;;;;;;;;;;;;;;;5038341;28;20036;-58
2021/05/19 03:19:07;;;;;;;5.35;2.03;;;;;;;;;;5056115;28;19904;-58
2021/05/19 03:21:38;;;;;;;2.20;1.48;;;;;;;;;;5037889;28;20467;-58
2021/05/19 03:24:06;;;;;;;;;;;;;;;;;;5055648;28;20040;-58
2021/05/19 03:26:38;;;;;;;3.08;1.98;;;;;;;;;;5055431;28;19908;-58
2021/05/19 03:29:07;;;;;;;2.60;2.00;;;;;;;;;;5055632;28;20032;-58
2021/05/19 03:31:33;;;;;;;3.33;2.22;;;;;;;;;;5037534;28;20410;-58
2021/05/19 03:34:05;;;;;;;5.72;2.60;;;;;;;;;;5056211;28;20104;-58
2021/05/19 03:36:34;;;;;;;2.92;2.00;;;;;;;;;;5055498;28;20033;-59
2021/05/19 03:39:00;;;;;;;6.72;2.28;;;;;;;;;;5037279;28;20025;-58
2021/05/19 03:41:29;;;;;;;3.25;1.90;;;;;;;;;;5055337;28;20052;-58
2021/05/19 03:43:55;;;;;;;2.42;1.73;;;;;;;;;;5038415;28;20115;-58
2021/05/19 03:46:25;;;;;;;3.05;1.83;;;;;;;;;;5037612;28;20473;-58
2021/05/19 03:48:58;;;;;;;3.38;2.10;;;;;;;;;;5050620;28;20029;-58
2021/05/19 03:51:26;;;;;;;3.58;2.15;;;;;;;;;;5055416;28;20033;-58
2021/05/19 03:54:03;;;;;;;2.85;1.80;;;;;;;;;;5055391;28;20029;-58
2021/05/19 03:56:34;;;;;;;4.35;2.50;;;;;;;;;;5055185;28;20029;-58
2021/05/19 03:59:03;;;;;;;3.47;1.90;;;;;;;;;;5055314;28;20025;-58
2021/05/19 04:01:29;;;;;;;2.67;1.52;;;;;;;;;;5038102;28;20068;-58
2021/05/19 04:03:56;;;;;;;1.85;1.38;;;;;;;;;;5055091;28;20033;-58
2021/05/19 04:06:25;;;;;;;2.35;1.70;;;;;;;;;;5056001;28;20086;-58
2021/05/19 04:08:57;;;;;;;2.05;1.50;;;;;;;;;;5053493;28;20091;-58
2021/05/19 04:11:23;;;;;;;2.50;1.90;;;;;;;;;;5070108;28;20028;-58
2021/05/19 04:13:58;;;;;;;2.35;2.10;;;;;;;;;;5054996;28;20077;-58
2021/05/19 04:16:30;;;;;;;7.47;2.30;;;;;;;;;;5055535;28;20100;-58
2021/05/19 04:18:56;;;;;;;4.90;1.83;;;;;;;;;;5054482;28;20056;-58
2021/05/19 04:21:29;;;;;;;2.78;1.55;;;;;;;;;;5037247;28;20104;-58
2021/05/19 04:24:02;;;;;;;3.88;2.67;;;;;;;;;;5055419;28;20127;-59
2021/05/19 04:26:28;;;;;;;4.05;2.17;;;;;;;;;;5037419;28;20099;-59
2021/05/19 04:28:57;;;;;;;3.47;2.42;;;;;;;;;;5036825;28;20029;-58
2021/05/19 04:31:36;;;;;;;2.70;1.85;;;;;;;;;;5055331;28;20036;-58
2021/05/19 04:34:07;;;;;;;2.80;2.03;;;;;;;;;;5036422;28;20407;-58
2021/05/19 04:36:33;;;;;;;3.15;1.90;;;;;;;;;;5036817;28;20040;-58
2021/05/19 04:39:05;;;;;;;3.15;2.05;;;;;;;;;;5054219;28;20392;-58
2021/05/19 04:41:39;;;;;;;3.53;2.28;;;;;;;;;;5053893;28;20057;-59
2021/05/19 04:44:07;;;;;;;3.17;2.20;;;;;;;;;;5036533;28;20021;-59
2021/05/19 04:46:37;;;;;;;2.80;1.98;;;;;;;;;;5054349;28;20025;-59
2021/05/19 04:49:09;;;;;;;2.95;2.28;;;;;;;;;;5036108;28;20033;-59
2021/05/19 04:51:35;;;;;;;4.82;2.15;;;;;;;;;;5037094;28;20028;-59
2021/05/19 04:54:07;;;;;;;8.85;8.15;;;;;;;;;;5035939;28;20025;-59
2021/05/19 04:56:37;;;;;;;3.78;3.42;;;;;;;;;;5036029;28;20471;-59
2021/05/19 04:59:10;;;;;;;4.30;2.70;;;;;;;;;;5036552;28;20028;-59
2021/05/19 05:01:38;;;;;;;2.90;2.45;;;;;;;;;;5035120;28;20032;-59
2021/05/19 05:04:07;;;;;;;3.78;2.85;;;;;;;;;;5054621;28;20404;-59
2021/05/19 05:06:33;;;;;;;4.32;2.70;;;;;;;;;;5053593;28;20459;-59
2021/05/19 05:09:05;;;;;;;3.80;2.80;;;;;;;;;;5053995;28;20057;-59
2021/05/19 05:11:31;;;;;;;4.53;2.80;;;;;;;;;;5054301;28;20029;-59
2021/05/19 05:14:24;;;;;;;3.20;2.50;;;;;;;;;;5053606;28;20467;-59
2021/05/19 05:19:54;;;;;;;3.22;2.40;;;;;;;;;;5053978;28;20036;-58
2021/05/19 05:22:20;;;;;;;6.40;2.72;;;;;;;;;;5035676;28;20475;-58
2021/05/19 05:24:49;;;;;;;5.07;2.53;;;;;;;;;;5053908;28;20021;-58
2021/05/19 05:27:18;;;;;;;3.47;2.97;;;;;;;;;;5053752;28;20029;-59
2021/05/19 05:29:51;;;;;;;4.05;2.83;;;;;;;;;;5053274;28;20082;-58
2021/05/19 05:32:17;;;;;;;3.55;2.63;;;;;;;;;;5053754;28;20105;-59
2021/05/19 05:34:45;;;;;;;4.53;3.10;;;;;;;;;;5053665;28;20021;-58
2021/05/19 05:37:24;;;;;;;3.83;2.40;;;;;;;;;;5053917;28;20361;-59
2021/05/19 05:39:57;;;;;;;3.80;3.33;;;;;;;;;;5036543;28;20025;-58
2021/05/19 05:42:26;;;;;;;3.55;2.83;;;;;;;;;;5051756;28;20079;-59
2021/05/19 05:44:56;;;;;;;3.60;3.20;;;;;;;;;;5053233;28;20073;-59
2021/05/19 05:47:25;;;;;;;5.22;3.00;;;;;;;;;;5035500;28;20025;-59
2021/05/19 05:50:01;;;;;;;3.65;3.25;;;;;;;;;;5052704;28;20069;-59
2021/05/19 05:52:31;;;;;;;4.65;3.63;;;;;;;;;;5054106;28;20025;-58
2021/05/19 05:54:59;;;;;;;6.68;3.88;;;;;;;;;;5053468;28;20067;-58
2021/05/19 05:57:26;;;;;;;4.13;3.70;;;;;;;;;;5034301;28;20552;-59
2021/05/19 05:59:52;;;;;;;3.90;3.33;;;;;;;;;;5036167;28;20522;-59
2021/05/19 06:02:26;;;;;;;4.85;4.25;;;;;;;;;;5036254;28;20039;-59
2021/05/19 06:04:55;;;;;;;3.42;2.80;;;;;;;;;;5068685;28;20031;-59
2021/05/19 06:07:24;;;;;;;3.92;3.17;;;;;;;;;;5053200;28;20108;-59
2021/05/19 06:09:53;;;;;;;4.63;3.35;;;;;;;;;;5053408;28;20108;-59
2021/05/19 06:12:22;;;;;;;5.47;3.17;;;;;;;;;;5056240;28;20033;-59
2021/05/19 06:14:58;;;;;;;4.40;3.45;;;;;;;;;;5056948;28;20104;-59
2021/05/19 06:17:30;;;;;;;4.45;3.45;;;;;;;;;;5055094;28;20120;-59
2021/05/19 06:19:59;;;;;;;4.53;3.38;;;;;;;;;;5056951;28;20025;-58
2021/05/19 06:22:25;;;;;;;6.90;4.05;;;;;;;;;;5039175;28;20033;-58
2021/05/19 06:24:56;;;;;;;4.85;3.55;;;;;;;;;;5039013;28;20463;-59
2021/05/19 06:27:23;;;;;;;3.60;3.08;;;;;;;;;;5057424;28;20029;-59
2021/05/19 06:29:54;;;;;;;3.75;3.35;;;;;;;;;;5072819;28;20029;-58
2021/05/19 06:32:23;;;;;;;4.22;3.00;;;;;;;;;;5056817;28;20021;-58
2021/05/19 06:34:53;;;;;;;3.70;3.15;;;;;;;;;;5038760;28;20490;-59
2021/05/19 06:37:22;;;;;;;4.97;3.67;;;;;;;;;;5056819;28;20025;-59
2021/05/19 06:39:51;;;;;;;4.57;3.65;;;;;;;;;;5056487;28;20068;-58
2021/05/19 06:42:19;;;;;;;5.00;3.42;;;;;;;;;;5035333;28;20045;-58
2021/05/19 06:44:45;;;;;;;5.60;3.92;;;;;;;;;;5036916;28;20030;-59
2021/05/19 06:47:11;;;;;;;4.03;3.30;;;;;;;;;;5037537;28;20444;-59
2021/05/19 06:49:38;;;;;;;5.28;3.72;;;;;;;;;;5036356;28;20030;-59
2021/05/19 06:52:06;;;;;;;6.85;3.58;;;;;;;;;;5037429;28;20030;-59
2021/05/19 06:54:33;;;;;;;4.97;3.70;;;;;;;;;;5036503;28;20431;-59
2021/05/19 06:56:59;;;;;;;4.40;3.35;;;;;;;;;;5034875;28;20060;-58
2021/05/19 06:59:47;;;;;;;5.00;3.38;;;;;;;;;;5034851;28;20026;-59
2021/05/19 07:02:19;;;;;;;3.75;2.30;;;;;;;;;;5036683;28;20076;-59
2021/05/19 07:04:45;;;;;;;4.38;2.78;;;;;;;;;;5036071;28;20018;-58
2021/05/19 07:07:16;;;;;;;3.83;2.30;;;;;;;;;;5035354;28;20022;-59
2021/05/19 07:09:47;;;;;;;5.85;2.88;;;;;;;;;;5035977;28;20025;-58
2021/05/19 07:12:13;;;;;;;2.60;2.30;;;;;;;;;;5034700;28;20091;-59
2021/05/19 07:14:46;;;;;;;3.75;2.20;;;;;;;;;;5034930;28;20029;-59
2021/05/19 07:17:18;;;;;;;3.67;2.25;;;;;;;;;;5036315;28;20061;-59
2021/05/19 07:19:44;;;;;;;3.60;2.80;;;;;;;;;;5035806;28;20498;-59
2021/05/19 07:22:10;;;;;;;7.30;2.17;;;;;;;;;;5035985;28;20442;-59
2021/05/19 07:24:48;;;;;;;3.53;2.40;;;;;;;;;;5034631;28;20479;-58
2021/05/19 07:27:19;;;;;;;4.25;2.58;;;;;;;;;;5036149;28;20075;-59
2021/05/19 07:29:45;;;;;;;2.80;1.88;;;;;;;;;;5035524;28;20387;-59
2021/05/19 07:32:11;;;;;;;2.78;2.03;;;;;;;;;;5034310;28;20025;-59
2021/05/19 07:34:40;;;;;;;5.90;2.58;;;;;;;;;;5034508;28;20411;-59
2021/05/19 07:37:06;;;;;;;2.83;2.03;;;;;;;;;;5034638;28;20402;-58
2021/05/19 07:39:35;;;;;;;6.95;1.92;;;;;;;;;;5033638;28;20075;-59
2021/05/19 07:42:01;;;;;;;1.73;1.48;;;;;;;;;;5050805;28;20053;-59
2021/05/19 07:44:27;;;;;;;2.83;1.48;;;;;;;;;;5037305;28;20029;-59
2021/05/19 07:46:54;;;;;;;3.22;1.55;;;;;;;;;;5038102;28;20363;-58
2021/05/19 07:49:20;;;;;;;3.55;1.90;;;;;;;;;;5055258;28;20070;-59
2021/05/19 07:51:49;;;;;;;2.10;1.35;;;;;;;;;;5055660;28;20025;-59
2021/05/19 07:54:24;;;;;;;3.50;2.28;;;;;;;;;;5037274;28;20391;-59
2021/05/19 07:57:00;;;;;;;4.78;2.03;;;;;;;;;;5055294;28;20087;-59
2021/05/19 07:59:33;;;;;;;3.63;1.70;;;;;;;;;;5055346;28;20117;-58
2021/05/19 08:02:04;;;;;;;3.05;2.42;;;;;;;;;;5055652;28;20033;-59
2021/05/19 08:04:34;;;;;;;7.03;2.67;;;;;;;;;;5055173;28;20034;-59
2021/05/19 08:07:01;;;;;;;6.07;2.85;;;;;;;;;;5055024;28;20021;-59
2021/05/19 08:09:30;;;;;;;2.88;1.85;;;;;;;;;;5055054;28;20025;-59
2021/05/19 08:11:57;;;;;;;3.58;2.47;;;;;;;;;;5037349;28;20061;-59
2021/05/19 08:14:29;;;;;;;4.13;2.70;;;;;;;;;;5055497;28;20070;-59
2021/05/19 08:17:01;;;;;;;4.18;2.53;;;;;;;;;;5037750;28;20407;-59
2021/05/19 08:19:30;;;;;;;3.53;2.40;;;;;;;;;;5054623;28;20021;-59
2021/05/19 08:22:03;;;;;;;3.25;2.28;;;;;;;;;;5054566;28;20032;-59
2021/05/19 08:24:34;;;;;;;6.15;2.65;;;;;;;;;;5054645;28;20075;-59
2021/05/19 08:27:00;;;;;;;3.20;2.47;;;;;;;;;;5036321;28;20032;-59
2021/05/19 08:29:26;;;;;;;2.45;1.85;;;;;;;;;;5055201;28;20359;-58
2021/05/19 08:31:56;;;;;;;3.55;2.38;;;;;;;;;;5054992;28;20029;-58
2021/05/19 08:34:22;;;;;;;2.83;2.22;;;;;;;;;;5037196;28;20029;-58
2021/05/19 08:36:49;;;;;;;4.32;2.75;;;;;;;;;;5055151;28;20048;-59
2021/05/19 08:39:15;;;;;;;3.70;2.65;;;;;;;;;;5036319;28;20033;-59
2021/05/19 08:41:45;;;;;;;2.35;1.73;;;;;;;;;;5053799;28;20049;-59
2021/05/19 08:44:11;;;;;;;3.22;2.42;;;;;;;;;;5054360;28;20517;-59
2021/05/19 08:46:42;;;;;;;3.60;2.00;;;;;;;;;;5054140;28;20078;-59
2021/05/19 08:49:12;;;;;;;2.55;1.70;;;;;;;;;;5053952;28;20028;-59
2021/05/19 08:51:38;;;;;;;2.90;1.88;;;;;;;;;;5069896;28;20029;-59
2021/05/19 08:54:07;;;;;;;3.83;1.75;;;;;;;;;;5035782;28;20040;-59
2021/05/19 08:56:46;;;;;;;3.03;2.30;;;;;;;;;;5053542;28;20020;-59
2021/05/19 08:59:15;;;;;;;2.70;1.80;;;;;;;;;;5053798;28;20032;-59
2021/05/19 09:01:41;;;;;;;2.03;1.52;;;;;;;;;;5053685;28;20371;-59
2021/05/19 09:04:09;;;;;;;2.67;1.95;;;;;;;;;;5053554;28;20025;-59
2021/05/19 09:06:40;;;;;;;5.55;1.90;;;;;;;;;;5068886;28;20032;-59
2021/05/19 09:09:34;;;;;;;5.18;1.75;;;;;;;;;;5053765;28;20021;-59
2021/05/19 09:12:14;;;;;;;1.98;0.98;;;;;;;;;;5054114;28;20025;-59
2021/05/19 09:14:56;;;;;;;2.65;1.30;;;;;;;;;;5053403;28;20048;-59
2021/05/19 09:17:27;;;;;;;2.13;1.23;;;;;;;;;;5053441;28;20025;-59
2021/05/19 09:19:55;;;;;;;;;;;;;;;;;;5053891;28;20028;-59
2021/05/19 09:22:29;;;;;;;4.70;1.60;;;;;;;;;;5053434;28;19947;-59
2021/05/19 09:25:00;;;;;;;6.00;1.40;;;;;;;;;;5035733;28;20025;-59
2021/05/19 09:27:43;;;;;;;2.83;1.20;;;;;;;;;;5036005;28;20174;-59
2021/05/19 09:30:13;;;;;;;2.35;1.33;;;;;;;;;;5053675;28;20017;-59
2021/05/19 09:32:40;;;;;;;2.15;1.10;;;;;;;;;;5053092;28;20107;-59
2021/05/19 09:35:10;;;;;;;1.15;0.82;;;;;;;;;;5053456;28;20021;-59
2021/05/19 09:37:36;;;;;;;2.43;0.80;;;;;;;;;;5053312;28;20021;-59
2021/05/19 09:40:05;;;;;;;2.13;0.68;;;;;;;;;;5053147;28;20267;-59
2021/05/19 09:42:37;;;;;;;1.60;0.82;;;;;;;;;;5054065;28;20091;-59
2021/05/19 09:45:15;;;;;;;3.45;0.98;;;;;;;;;;5035660;28;20025;-59
2021/05/19 09:47:44;;;;;;;1.50;0.60;;;;;;;;;;5052291;28;20037;-59
2021/05/19 09:50:15;;;;;;;4.20;0.95;;;;;;;;;;5052947;28;20017;-59
2021/05/19 09:53:01;;;;;;;1.50;0.88;;;;;;;;;;5053209;28;20028;-59
2021/05/19 09:55:27;;;;;;;1.50;0.70;;;;;;;;;;5035591;28;20040;-59
2021/05/19 09:57:54;;;;;;;3.83;0.90;;;;;;;;;;5035189;28;20033;-59
2021/05/19 10:00:22;;;;;;;4.53;1.30;;;;;;;;;;5052811;28;20458;-59
2021/05/19 10:02:52;;;;;;;2.53;1.05;;;;;;;;;;5053834;28;20027;-59
2021/05/19 10:05:44;;;;;;;1.17;0.47;;;;;;;;;;5052987;28;20025;-60
2021/05/19 10:08:13;;;;;;;0.52;0.32;;;;;;;;;;5048651;28;20052;-59
2021/05/19 10:10:40;;;;;;;1.50;0.70;;;;;;;;;;5052796;28;20032;-60
2021/05/19 10:13:08;;;;;;;2.67;1.42;;;;;;;;;;5035196;28;20032;-60
2021/05/19 10:15:34;;;;;;;1.13;0.40;;;;;;;;;;5051489;28;20033;-58
2021/05/19 10:18:11;;;;;;;1.88;0.68;;;;;;;;;;5035107;28;20029;-59
2021/05/19 10:20:39;;;;;;;0.90;0.50;;;;;;;;;;5053430;28;20071;-59
2021/05/19 10:23:07;;;;;;;0.90;0.47;;;;;;;;;;5035467;28;20112;-59
2021/05/19 10:25:39;;;;;;;0.73;0.40;;;;;;;;;;5053342;28;20032;-59
2021/05/19 10:28:14;;;;;;;1.48;0.70;;;;;;;;;;5052975;28;20112;-59
2021/05/19 10:30:42;;;;;;;0.98;0.40;;;;;;;;;;5053091;28;20451;-59
2021/05/19 10:33:32;;;;;;;1.10;0.40;;;;;;;;;;5035480;28;20060;-59
2021/05/19 10:35:59;;;;;;;1.13;0.43;;;;;;;;;;5034654;28;20029;-59
2021/05/19 10:38:28;;;;;;;1.23;0.40;;;;;;;;;;5051415;28;20036;-59
2021/05/19 10:40:56;;;;;;;0.93;0.28;;;;;;;;;;5052512;28;20103;-59
2021/05/19 10:43:22;;;;;;;1.25;0.55;;;;;;;;;;5052582;28;20025;-59
2021/05/19 10:45:51;;;;;;;1.10;0.43;;;;;;;;;;5035570;28;20036;-60
2021/05/19 10:48:34;;;;;;;0.88;0.40;;;;;;;;;;5052717;28;20020;-60
2021/05/19 10:51:22;;;;;;;2.70;0.95;;;;;;;;;;5052565;28;20090;-59
2021/05/19 10:59:52;;;;;;;1.13;0.50;;;;;;;;;;5054710;28;19911;-59
2021/05/19 11:02:21;;;;;;;1.77;0.52;;;;;;;;;;5055621;28;20045;-60
2021/05/19 11:05:07;;;;;;;1.77;1.08;;;;;;;;;;5038548;28;20033;-60
2021/05/19 11:07:33;;;;;;;0.90;0.40;;;;;;;;;;5055989;28;20100;-60
2021/05/19 11:10:19;;;;;;;1.15;0.75;;;;;;;;;;5055969;28;20470;-60
2021/05/19 11:12:54;;;;;;;1.55;0.50;;;;;;;;;;5056143;28;20021;-60
2021/05/19 11:18:18;;;;;;;0.70;0.40;;;;;;;;;;5055931;28;20025;-60
2021/05/19 11:20:45;;;;;;;3.38;0.60;;;;;;;;;;5055524;28;20086;-60
2021/05/19 11:23:14;;;;;;;2.30;0.77;;;;;;;;;;5056198;28;20036;-60
2021/05/19 11:25:41;;;;;;;1.73;0.68;;;;;;;;;;5071233;28;20108;-60
2021/05/19 11:28:07;;;;;;;0.82;0.40;;;;;;;;;;5056066;28;20375;-60
2021/05/19 11:30:33;;;;;;;2.67;0.93;;;;;;;;;;5055629;28;20024;-60
2021/05/19 11:33:16;;;;;;;1.33;0.75;;;;;;;;;;5037899;28;20467;-60
2021/05/19 11:35:47;;;;;;;4.95;1.13;;;;;;;;;;5056367;28;20040;-60
2021/05/19 11:38:15;;;;;;;1.67;0.50;;;;;;;;;;5056103;28;20367;-60
2021/05/19 11:40:44;;;;;;;1.10;0.50;;;;;;;;;;5055190;28;20056;-60
2021/05/19 11:43:11;;;;;;;1.85;0.82;;;;;;;;;;5056046;28;20082;-60
2021/05/19 11:45:40;;;;;;;0.90;0.30;;;;;;;;;;5055309;28;20021;-60
2021/05/19 11:48:06;;;;;;;1.73;0.55;;;;;;;;;;5055403;28;20030;-60
2021/05/19 11:50:32;;;;;;;4.40;0.43;;;;;;;;;;5037712;28;20044;-60
2021/05/19 11:53:05;;;;;;;0.35;0.20;;;;;;;;;;5071486;28;20348;-57
2021/05/19 11:55:36;;;;;;;0.80;0.50;;;;;;;;;;5055554;28;20043;-60
2021/05/19 11:58:32;;;;;;;1.25;0.52;;;;;;;;;;5055410;28;20104;-59
2021/05/19 12:01:07;;;;;;;1.42;0.45;;;;;;;;;;5042270;28;20099;-59
2021/05/19 12:03:34;;;;;;;1.27;0.50;;;;;;;;;;5055073;28;20473;-60
2021/05/19 12:06:01;;;;;;;1.75;0.75;;;;;;;;;;5054569;28;20090;-60
2021/05/19 12:08:31;;;;;;;1.77;0.40;;;;;;;;;;5054750;28;20028;-60
2021/05/19 12:11:18;;;;;;;1.02;0.50;;;;;;;;;;5054311;28;20108;-59
2021/05/19 12:13:57;;;;;;;1.92;0.77;;;;;;;;;;5055515;28;20032;-59
2021/05/19 12:16:36;;;;;;;2.15;0.70;;;;;;;;;;5056090;28;20104;-59
2021/05/19 12:19:13;;;;;;;2.78;1.02;;;;;;;;;;5069935;28;20040;-59
2021/05/19 12:21:39;;;;;;;2.90;0.75;;;;;;;;;;5054763;28;20025;-60
2021/05/19 12:24:06;;;;;;;2.33;0.88;;;;;;;;;;5037029;28;20035;-59
2021/05/19 12:26:32;;;;;;;3.78;1.00;;;;;;;;;;5054769;28;20035;-58
2021/05/19 12:28:58;;;;;;;1.27;0.70;;;;;;;;;;5054630;28;20063;-59
2021/05/19 12:31:25;;;;;;;3.08;0.68;;;;;;;;;;5054760;28;20029;-59
2021/05/19 12:33:51;;;;;;;3.25;0.88;;;;;;;;;;5053868;28;20031;-59
2021/05/19 12:36:43;;;;;;;1.27;0.52;;;;;;;;;;5054182;28;20116;-59
2021/05/19 12:39:09;;;;;;;0.85;0.43;;;;;;;;;;5033418;28;20036;-60
2021/05/19 12:41:41;;;;;;;2.78;1.17;;;;;;;;;;5052781;28;20387;-58
2021/05/19 12:44:08;;;;;;;1.23;0.50;;;;;;;;;;5053967;28;20021;-59
2021/05/19 12:46:34;;;;;;;1.30;0.55;;;;;;;;;;5036013;28;20079;-59
2021/05/19 12:49:06;;;;;;;7.68;0.40;;;;;;;;;;5054597;28;20025;-58
2021/05/19 12:51:48;;;;;;;3.13;0.50;;;;;;;;;;5054210;28;20045;-58
2021/05/19 12:54:17;;;;;;;1.52;0.70;;;;;;;;;;5053832;28;20036;-58
2021/05/19 12:56:43;;;;;;;2.23;0.70;;;;;;;;;;5053742;28;20036;-59
2021/05/19 12:59:10;;;;;;;2.00;1.00;;;;;;;;;;5053342;28;20737;-58
2021/05/19 13:01:43;;;;;;;1.60;0.60;;;;;;;;;;5054049;28;20176;-59
2021/05/19 13:04:09;;;;;;;1.42;0.57;;;;;;;;;;5053719;28;20028;-59
2021/05/19 13:06:35;;;;;;;4.82;0.60;;;;;;;;;;5053628;28;20108;-59
2021/05/19 13:09:04;;;;;;;2.72;0.70;;;;;;;;;;5068744;28;20068;-58
2021/05/19 13:11:31;;;;;;;2.85;0.73;;;;;;;;;;5053856;28;20033;-58
2021/05/19 13:13:58;;;;;;;2.10;1.00;;;;;;;;;;5053382;28;20115;-58
2021/05/19 13:16:26;;;;;;;1.55;0.80;;;;;;;;;;5053335;28;20033;-59
2021/05/19 13:19:00;;;;;;;1.65;0.73;;;;;;;;;;5053028;28;20108;-59
2021/05/19 13:24:05;;;;;;;2.50;0.60;;;;;;;;;;5067948;28;20206;-58
2021/05/19 13:26:33;;;;;;;1.13;0.55;;;;;;;;;;5053907;28;20034;-59
2021/05/19 13:29:00;;;;;;;1.45;0.70;;;;;;;;;;5053490;28;20414;-59
2021/05/19 13:31:30;;;;;;;8.88;1.08;;;;;;;;;;5035554;28;20036;-59
2021/05/19 13:34:07;;;;;;;2.40;0.70;;;;;;;;;;5053510;28;20021;-59
2021/05/19 13:36:43;;;;;;;3.08;0.55;;;;;;;;;;5053135;28;20104;-59
2021/05/19 13:39:12;;;;;;;2.45;0.68;;;;;;;;;;5052860;28;20549;-59
2021/05/19 13:41:38;;;;;;;2.33;0.80;;;;;;;;;;5052638;28;20057;-58
2021/05/19 13:44:05;;;;;;;1.88;0.65;;;;;;;;;;5034572;28;20464;-59
2021/05/19 13:46:31;;;;;;;0.50;0.25;;;;;;;;;;5053057;28;20120;-59
2021/05/19 13:49:15;;;;;;;1.80;0.60;;;;;;;;;;5053012;28;20025;-59
2021/05/19 13:51:42;;;;;;;2.05;0.90;;;;;;;;;;5053935;28;20346;-59
2021/05/19 13:54:08;;;;;;;0.90;0.40;;;;;;;;;;5053392;28;20120;-59
2021/05/19 13:56:34;;;;;;;1.20;0.40;;;;;;;;;;5052673;28;20028;-59
2021/05/19 13:59:00;;;;;;;1.23;0.70;;;;;;;;;;5052907;28;20031;-58
2021/05/19 14:01:26;;;;;;;1.50;0.40;;;;;;;;;;5053134;28;20026;-58
2021/05/19 14:03:52;;;;;;;2.15;0.50;;;;;;;;;;5034885;28;20029;-58
2021/05/19 14:06:18;;;;;;;1.25;0.52;;;;;;;;;;5052758;28;20028;-58
2021/05/19 14:08:44;;;;;;;1.63;0.52;;;;;;;;;;5053485;28;20082;-58
2021/05/19 14:11:13;;;;;;;6.53;0.65;;;;;;;;;;5035335;28;20067;-58
2021/05/19 14:13:47;;;;;;;1.38;0.50;;;;;;;;;;5053199;28;20130;-58
2021/05/19 14:18:56;;;;;;;1.77;0.93;;;;;;;;;;5052792;28;20033;-59
2021/05/19 14:27:05;;;;;;;1.20;0.60;;;;;;;;;;5052753;28;20505;-59
2021/05/19 14:29:31;;;;;;;0.80;0.35;;;;;;;;;;5053034;28;20382;-59
2021/05/19 14:31:58;;;;;;;0.88;0.32;;;;;;;;;;5053246;28;20470;-59
2021/05/19 14:34:25;;;;;;;1.15;0.30;;;;;;;;;;5071883;28;20040;-59
2021/05/19 15:01:50;;;;;;;1.33;0.70;;;;;;;;;;5056025;28;20068;-58
2021/05/19 15:04:17;;;;;;;2.53;0.63;;;;;;;;;;5056022;28;20053;-58
2021/05/19 15:06:43;;;;;;;2.53;0.30;;;;;;;;;;5055979;28;20025;-58
2021/05/19 15:09:12;;;;;;;1.10;0.50;;;;;;;;;;5056056;28;20017;-58
2021/05/19 15:11:39;;;;;;;1.77;0.45;;;;;;;;;;5056020;28;20323;-58
2021/05/19 15:14:08;;;;;;;0.98;0.40;;;;;;;;;;5055981;28;20028;-59
2021/05/19 15:16:35;;;;;;;0.65;0.40;;;;;;;;;;5071147;28;20367;-58
2021/05/19 15:19:01;;;;;;;2.22;0.60;;;;;;;;;;5056159;28;20021;-59
2021/05/19 15:21:27;;;;;;;0.45;0.17;;;;;;;;;;5037525;28;20029;-59
2021/05/19 15:23:53;;;;;;;0.52;0.22;;;;;;;;;;5055328;28;20055;-59
2021/05/19 15:26:20;;;;;;;1.25;0.57;;;;;;;;;;5055304;28;20021;-59
2021/05/19 15:28:46;;;;;;;1.27;0.63;;;;;;;;;;5055150;28;20467;-59
2021/05/19 15:31:12;;;;;;;1.60;0.55;;;;;;;;;;5070466;28;20036;-59
2021/05/19 15:33:38;;;;;;;1.17;0.60;;;;;;;;;;5055205;28;20048;-59
2021/05/19 15:36:08;;;;;;;0.70;0.28;;;;;;;;;;5070859;28;20370;-59
2021/05/19 15:38:38;;;;;;;0.60;0.20;;;;;;;;;;5055440;28;20021;-60
2021/05/19 15:41:04;;;;;;;0.88;0.43;;;;;;;;;;5055418;28;20088;-60
2021/05/19 15:43:31;;;;;;;1.73;0.70;;;;;;;;;;5053188;28;20032;-59
2021/05/19 15:46:00;;;;;;;0.90;0.38;;;;;;;;;;5054445;28;20025;-59
2021/05/19 15:48:26;;;;;;;0.43;0.20;;;;;;;;;;5054963;28;20021;-59
2021/05/19 15:50:52;;;;;;;0.75;0.32;;;;;;;;;;5055293;28;20389;-60
2021/05/19 15:53:19;;;;;;;0.88;0.38;;;;;;;;;;5053629;28;20029;-59
2021/05/19 15:55:48;;;;;;;0.70;0.40;;;;;;;;;;5054990;28;20024;-60